createdAt,value
2023-01-28T00:01:17.117Z,3.26
2023-01-28T00:03:43.903Z,3.25
2023-01-28T00:06:14.890Z,3.15
2023-01-28T00:08:42.151Z,3.15
2023-01-28T00:11:10.415Z,3.09
2023-01-28T00:13:37.127Z,3.17
2023-01-28T00:16:05.184Z,3.26
2023-01-28T00:18:32.560Z,3.32
2023-01-28T00:21:03.303Z,3.37
2023-01-28T00:23:31.519Z,3.42
2023-01-28T00:25:58.947Z,3.50
2023-01-28T00:28:25.762Z,3.56
2023-01-28T00:30:52.319Z,3.61
2023-01-28T00:33:18.867Z,3.68
2023-01-28T00:35:45.436Z,3.75
2023-01-28T00:38:12.111Z,3.78
2023-01-28T00:40:38.633Z,3.82
2023-01-28T00:43:05.142Z,3.76
2023-01-28T00:45:31.861Z,3.77
2023-01-28T00:47:58.430Z,3.77
2023-01-28T00:50:25.231Z,3.71
2023-01-28T00:52:51.748Z,3.67
2023-01-28T00:55:18.518Z,3.64
2023-01-28T00:57:45.037Z,3.63
2023-01-28T01:00:11.821Z,3.72
2023-01-28T01:02:40.902Z,3.77
2023-01-28T01:05:08.705Z,3.71
2023-01-28T01:07:41.816Z,3.57
2023-01-28T01:10:10.512Z,3.49
2023-01-28T01:12:37.179Z,3.36
2023-01-28T01:15:04.067Z,3.19
2023-01-28T01:17:31.816Z,3.19
2023-01-28T01:19:58.370Z,3.34
2023-01-28T01:22:25.102Z,3.35
2023-01-28T01:24:51.665Z,3.37
2023-01-28T01:27:18.300Z,3.34
2023-01-28T01:29:44.815Z,3.28
2023-01-28T01:32:11.426Z,3.26
2023-01-28T01:34:38.151Z,3.27
2023-01-28T01:37:06.437Z,3.30
2023-01-28T01:39:32.932Z,3.29
2023-01-28T01:41:59.452Z,3.28
2023-01-28T01:44:44.996Z,3.20
2023-01-28T01:47:11.951Z,3.13
2023-01-28T01:49:39.017Z,3.06
2023-01-28T01:52:10.915Z,3.00
2023-01-28T01:54:39.421Z,2.98
2023-01-28T01:57:08.326Z,2.99
2023-01-28T01:59:35.865Z,3.01
2023-01-28T02:02:04.068Z,3.14
2023-01-28T02:04:48.907Z,3.35
2023-01-28T02:07:16.353Z,3.61
2023-01-28T02:09:43.093Z,3.77
2023-01-28T02:12:14.497Z,3.87
2023-01-28T02:14:46.380Z,3.94
2023-01-28T02:17:13.532Z,4.03
2023-01-28T02:19:43.905Z,4.14
2023-01-28T02:22:22.599Z,4.31
2023-01-28T02:24:57.998Z,4.32
2023-01-28T02:27:31.810Z,4.36
2023-01-28T02:30:13.517Z,4.41
2023-01-28T02:32:46.302Z,4.46
2023-01-28T02:35:16.470Z,4.58
2023-01-28T02:37:51.170Z,4.59
2023-01-28T02:40:23.958Z,4.47
2023-01-28T02:42:50.530Z,4.43
2023-01-28T02:45:20.232Z,4.30
2023-01-28T02:47:58.788Z,4.35
2023-01-28T02:50:41.132Z,4.23
2023-01-28T02:53:31.836Z,4.06
2023-01-28T02:56:06.043Z,3.93
2023-01-28T02:58:38.009Z,3.97
2023-01-28T03:01:04.777Z,4.02
2023-01-28T03:03:37.387Z,4.15
2023-01-28T03:06:07.146Z,4.11
2023-01-28T03:09:12.211Z,4.27
2023-01-28T03:11:59.788Z,4.46
2023-01-28T03:14:46.396Z,4.63
2023-01-28T03:17:35.163Z,4.65
2023-01-28T03:20:20.525Z,4.79
2023-01-28T03:23:08.764Z,4.91
2023-01-28T03:25:54.243Z,4.82
2023-01-28T03:28:40.951Z,4.86
2023-01-28T03:31:28.162Z,4.75
2023-01-28T03:34:14.378Z,4.70
2023-01-28T03:36:53.738Z,4.67
2023-01-28T03:39:23.395Z,4.67
2023-01-28T03:42:03.807Z,4.67
2023-01-28T03:44:49.313Z,4.66
2023-01-28T03:47:16.018Z,4.77
2023-01-28T03:49:45.715Z,4.71
2023-01-28T03:52:13.264Z,4.77
2023-01-28T03:54:39.892Z,4.93
2023-01-28T03:57:06.761Z,5.04
2023-01-28T03:59:34.077Z,4.97
2023-01-28T04:02:00.639Z,5.12
2023-01-28T04:04:28.356Z,5.13
2023-01-28T04:06:55.207Z,5.12
2023-01-28T04:09:22.487Z,5.10
2023-01-28T04:11:49.601Z,5.29
2023-01-28T04:14:16.402Z,5.29
2023-01-28T04:16:43.079Z,5.34
2023-01-28T04:19:09.922Z,5.51
2023-01-28T04:21:36.501Z,5.61
2023-01-28T04:24:03.222Z,5.57
2023-01-28T04:26:30.107Z,5.63
2023-01-28T04:28:56.705Z,5.76
2023-01-28T04:31:24.000Z,5.77
2023-01-28T04:33:50.851Z,5.79
2023-01-28T04:36:17.498Z,5.76
2023-01-28T04:38:44.146Z,5.69
2023-01-28T04:41:10.907Z,5.75
2023-01-28T04:43:37.481Z,5.74
2023-01-28T04:46:04.191Z,5.81
2023-01-28T04:48:31.504Z,5.82
2023-01-28T04:50:58.143Z,5.76
2023-01-28T04:53:24.719Z,5.77
2023-01-28T04:55:51.289Z,5.69
2023-01-28T04:58:17.879Z,5.71
2023-01-28T05:00:44.640Z,5.66
2023-01-28T05:03:11.403Z,5.67
2023-01-28T05:05:38.129Z,5.66
2023-01-28T05:08:04.745Z,5.64
2023-01-28T05:10:31.363Z,5.60
2023-01-28T05:12:57.859Z,5.60
2023-01-28T05:15:24.479Z,5.47
2023-01-28T05:17:51.038Z,5.40
2023-01-28T05:20:17.628Z,5.31
2023-01-28T05:22:44.227Z,5.33
2023-01-28T05:25:10.799Z,5.31
2023-01-28T05:27:37.645Z,5.35
2023-01-28T05:30:04.979Z,5.30
2023-01-28T05:32:31.586Z,5.33
2023-01-28T05:34:58.197Z,5.31
2023-01-28T05:37:24.692Z,5.35
2023-01-28T05:39:51.373Z,5.38
2023-01-28T05:42:20.869Z,5.36
2023-01-28T05:44:47.649Z,5.40
2023-01-28T05:47:14.198Z,5.43
2023-01-28T05:49:40.885Z,5.49
2023-01-28T05:52:07.519Z,5.48
2023-01-28T05:54:34.141Z,5.42
2023-01-28T05:57:00.713Z,5.49
2023-01-28T05:59:27.237Z,5.49
2023-01-28T06:01:53.766Z,5.50
2023-01-28T06:04:20.466Z,5.52
2023-01-28T06:06:47.066Z,5.53
2023-01-28T06:09:13.629Z,5.46
2023-01-28T06:11:40.311Z,5.48
2023-01-28T06:14:06.817Z,5.50
2023-01-28T06:16:33.487Z,5.50
2023-01-28T06:19:00.175Z,5.49
2023-01-28T06:21:28.434Z,5.51
2023-01-28T06:23:56.531Z,5.52
2023-01-28T06:26:24.121Z,5.49
2023-01-28T06:28:50.719Z,5.46
2023-01-28T06:31:17.374Z,5.43
2023-01-28T06:33:43.983Z,5.44
2023-01-28T06:36:10.640Z,5.41
2023-01-28T06:38:37.201Z,5.39
2023-01-28T06:41:03.742Z,5.36
2023-01-28T06:43:30.993Z,5.37
2023-01-28T06:45:58.616Z,5.32
2023-01-28T06:48:26.063Z,5.23
2023-01-28T06:50:53.059Z,5.13
2023-01-28T06:53:19.580Z,5.07
2023-01-28T06:55:46.098Z,4.98
2023-01-28T06:58:13.219Z,4.93
2023-01-28T07:00:40.060Z,4.88
2023-01-28T07:03:06.890Z,4.86
2023-01-28T07:05:33.487Z,4.84
2023-01-28T07:08:00.349Z,4.83
2023-01-28T07:10:26.940Z,4.83
2023-01-28T07:12:53.457Z,4.87
2023-01-28T07:15:20.073Z,4.90
2023-01-28T07:17:46.640Z,4.89
2023-01-28T07:20:15.230Z,4.90
2023-01-28T07:22:43.028Z,4.86
2023-01-28T07:25:10.261Z,4.80
2023-01-28T07:27:36.979Z,4.81
2023-01-28T07:30:04.093Z,4.83
2023-01-28T07:32:30.699Z,4.83
2023-01-28T07:34:57.288Z,4.79
2023-01-28T07:37:23.874Z,4.71
2023-01-28T07:39:50.479Z,4.62
2023-01-28T07:42:18.098Z,4.59
2023-01-28T07:44:44.677Z,4.54
2023-01-28T07:47:11.842Z,4.53
2023-01-28T07:49:40.037Z,4.47
2023-01-28T07:52:07.189Z,4.43
2023-01-28T07:54:33.686Z,4.41
2023-01-28T07:57:00.643Z,4.35
2023-01-28T07:59:27.265Z,4.33
2023-01-28T08:01:56.769Z,4.30
2023-01-28T08:04:23.475Z,4.18
2023-01-28T08:06:52.456Z,4.19
2023-01-28T08:09:19.116Z,4.22
2023-01-28T08:11:45.644Z,4.22
2023-01-28T08:14:12.199Z,4.25
2023-01-28T08:16:38.722Z,4.21
2023-01-28T08:19:05.464Z,4.17
2023-01-28T08:21:32.019Z,4.06
2023-01-28T08:23:58.526Z,4.01
2023-01-28T08:26:25.291Z,4.00
2023-01-28T08:28:51.929Z,4.09
2023-01-28T08:31:18.785Z,4.15
2023-01-28T08:33:45.483Z,4.15
2023-01-28T08:36:12.242Z,4.15
2023-01-28T08:38:38.873Z,4.14
2023-01-28T08:41:05.507Z,4.12
2023-01-28T08:43:32.111Z,4.08
2023-01-28T08:45:58.849Z,4.02
2023-01-28T08:48:25.431Z,3.94
2023-01-28T08:50:52.197Z,3.86
2023-01-28T08:53:19.718Z,3.86
2023-01-28T08:55:46.840Z,3.91
2023-01-28T08:58:15.268Z,3.91
2023-01-28T09:00:42.252Z,3.88
2023-01-28T09:03:08.937Z,3.91
2023-01-28T09:05:36.147Z,3.94
2023-01-28T09:08:06.876Z,3.96
2023-01-28T09:10:33.451Z,4.04
2023-01-28T09:13:04.387Z,4.05
2023-01-28T09:15:32.692Z,4.06
2023-01-28T09:17:59.470Z,4.06
2023-01-28T09:20:26.207Z,4.19
2023-01-28T09:22:52.814Z,4.30
2023-01-28T09:25:19.646Z,4.22
2023-01-28T09:27:46.216Z,4.37
2023-01-28T09:30:14.412Z,4.48
2023-01-28T09:32:41.196Z,4.55
2023-01-28T09:35:07.875Z,4.55
2023-01-28T09:37:34.610Z,4.66
2023-01-28T09:40:01.126Z,4.78
2023-01-28T09:42:36.218Z,4.85
2023-01-28T09:45:05.927Z,4.93
2023-01-28T09:47:32.519Z,5.02
2023-01-28T09:50:00.485Z,5.14
2023-01-28T09:52:27.277Z,5.19
2023-01-28T09:55:02.985Z,5.14
2023-01-28T09:57:41.857Z,5.11
2023-01-28T10:00:20.464Z,5.17
2023-01-28T10:02:50.415Z,5.13
2023-01-28T10:05:40.914Z,5.20
2023-01-28T10:08:19.765Z,5.14
2023-01-28T10:10:57.598Z,5.10
2023-01-28T10:13:24.110Z,5.15
2023-01-28T10:15:54.675Z,5.06
2023-01-28T10:18:33.722Z,4.98
2023-01-28T10:21:08.179Z,4.95
2023-01-28T10:23:34.759Z,4.97
2023-01-28T10:26:04.802Z,4.93
2023-01-28T10:28:32.708Z,4.90
2023-01-28T10:30:59.342Z,4.87
2023-01-28T10:33:28.876Z,4.91
2023-01-28T10:35:56.275Z,4.93
2023-01-28T10:38:24.143Z,5.02
2023-01-28T10:40:50.990Z,5.13
2023-01-28T10:43:19.979Z,5.17
2023-01-28T10:45:52.832Z,5.22
2023-01-28T10:48:30.366Z,5.21
2023-01-28T10:51:00.191Z,5.31
2023-01-28T10:53:42.704Z,5.34
2023-01-28T10:56:16.451Z,5.47
2023-01-28T10:59:01.365Z,5.66
2023-01-28T11:01:45.589Z,5.88
2023-01-28T11:04:17.274Z,5.93
2023-01-28T11:06:52.027Z,6.03
2023-01-28T11:09:22.567Z,6.04
2023-01-28T11:11:49.253Z,6.19
2023-01-28T11:14:20.283Z,6.34
2023-01-28T11:16:47.201Z,6.49
2023-01-28T11:19:13.960Z,6.57
2023-01-28T11:21:40.482Z,6.60
2023-01-28T11:24:20.119Z,6.63
2023-01-28T11:26:49.630Z,6.60
2023-01-28T11:29:25.430Z,6.70
2023-01-28T11:31:52.549Z,6.60
2023-01-28T11:34:20.076Z,6.58
2023-01-28T11:36:50.915Z,6.60
2023-01-28T11:39:20.792Z,6.64
2023-01-28T11:41:47.564Z,6.63
2023-01-28T11:44:14.641Z,6.74
2023-01-28T11:46:47.176Z,6.85
2023-01-28T11:49:22.898Z,6.74
2023-01-28T11:51:52.306Z,6.70
2023-01-28T11:54:29.034Z,6.72
2023-01-28T11:56:58.785Z,6.53
2023-01-28T11:59:28.358Z,6.57
2023-01-28T12:02:04.036Z,6.54
2023-01-28T12:04:36.405Z,6.65
2023-01-28T12:07:03.018Z,6.73
2023-01-28T12:09:44.706Z,6.81
2023-01-28T12:12:29.860Z,6.95
2023-01-28T12:15:15.137Z,6.98
2023-01-28T12:17:41.716Z,7.11
2023-01-28T12:20:19.608Z,7.32
2023-01-28T12:22:46.180Z,7.44
2023-01-28T12:25:19.529Z,7.32
2023-01-28T12:27:48.875Z,7.42
2023-01-28T12:30:21.256Z,7.23
2023-01-28T12:32:55.234Z,7.34
2023-01-28T12:35:25.206Z,7.58
2023-01-28T12:38:10.791Z,7.59
2023-01-28T12:40:45.276Z,7.61
2023-01-28T12:43:11.852Z,7.61
2023-01-28T12:45:45.759Z,7.67
2023-01-28T12:48:16.481Z,7.61
2023-01-28T12:50:46.754Z,7.65
2023-01-28T12:53:35.449Z,7.64
2023-01-28T12:56:15.802Z,7.64
2023-01-28T12:58:45.483Z,7.60
2023-01-28T13:01:15.790Z,7.62
2023-01-28T13:03:49.807Z,7.76
2023-01-28T13:06:30.728Z,7.73
2023-01-28T13:09:00.743Z,7.67
2023-01-28T13:11:32.904Z,7.66
2023-01-28T13:13:59.890Z,7.77
2023-01-28T13:16:36.806Z,7.93
2023-01-28T13:19:08.339Z,8.14
2023-01-28T13:21:47.673Z,8.23
2023-01-28T13:24:15.575Z,8.22
2023-01-28T13:26:44.753Z,8.12
2023-01-28T13:29:14.352Z,8.28
2023-01-28T13:31:45.422Z,8.30
2023-01-28T13:34:36.297Z,8.14
2023-01-28T13:37:21.655Z,7.95
2023-01-28T13:39:50.268Z,7.93
2023-01-28T13:42:19.746Z,8.12
2023-01-28T13:44:46.566Z,8.23
2023-01-28T13:47:29.633Z,8.12
2023-01-28T13:50:07.527Z,8.09
2023-01-28T13:52:43.136Z,7.98
2023-01-28T13:55:12.967Z,7.92
2023-01-28T13:57:59.951Z,7.94
2023-01-28T14:00:49.594Z,8.00
2023-01-28T14:03:19.180Z,7.91
2023-01-28T14:06:04.380Z,7.98
2023-01-28T14:08:30.879Z,7.96
2023-01-28T14:10:57.433Z,7.92
2023-01-28T14:13:23.967Z,8.01
2023-01-28T14:15:59.108Z,8.01
2023-01-28T14:18:27.455Z,8.08
2023-01-28T14:20:55.607Z,8.16
2023-01-28T14:23:23.481Z,8.11
2023-01-28T14:25:49.966Z,8.10
2023-01-28T14:28:36.959Z,8.12
2023-01-28T14:31:09.351Z,8.17
2023-01-28T14:33:36.545Z,7.96
2023-01-28T14:36:03.258Z,7.94
2023-01-28T14:38:34.259Z,7.96
2023-01-28T14:41:00.806Z,7.80
2023-01-28T14:43:27.936Z,7.84
2023-01-28T14:46:09.006Z,7.85
2023-01-28T14:48:48.909Z,7.89
2023-01-28T14:51:18.512Z,7.80
2023-01-28T14:54:03.447Z,7.85
2023-01-28T14:56:35.506Z,7.89
2023-01-28T14:59:13.852Z,7.91
2023-01-28T15:01:44.308Z,7.65
2023-01-28T15:04:29.273Z,7.74
2023-01-28T15:06:56.455Z,7.71
2023-01-28T15:09:23.519Z,7.70
2023-01-28T15:11:52.332Z,7.67
2023-01-28T15:14:27.661Z,7.63
2023-01-28T15:16:54.687Z,7.61
2023-01-28T15:19:26.173Z,7.57
2023-01-28T15:21:55.085Z,7.54
2023-01-28T15:24:21.699Z,7.49
2023-01-28T15:26:48.285Z,7.54
2023-01-28T15:29:41.252Z,7.50
2023-01-28T15:32:20.973Z,7.46
2023-01-28T15:34:47.801Z,7.40
2023-01-28T15:37:14.596Z,7.32
2023-01-28T15:39:41.234Z,7.28
2023-01-28T15:42:07.889Z,7.21
2023-01-28T15:44:36.311Z,7.21
2023-01-28T15:47:04.751Z,7.18
2023-01-28T15:49:34.387Z,7.11
2023-01-28T15:52:01.355Z,7.04
2023-01-28T15:54:30.390Z,7.03
2023-01-28T15:56:57.193Z,6.98
2023-01-28T15:59:28.152Z,6.91
2023-01-28T16:02:12.760Z,6.82
2023-01-28T16:04:39.279Z,6.67
2023-01-28T16:07:06.125Z,6.62
2023-01-28T16:09:34.115Z,6.53
2023-01-28T16:12:05.731Z,6.42
2023-01-28T16:14:38.173Z,6.39
2023-01-28T16:17:05.006Z,6.33
2023-01-28T16:19:39.494Z,6.30
2023-01-28T16:22:07.117Z,6.25
2023-01-28T16:24:36.630Z,6.23
2023-01-28T16:27:07.445Z,6.12
2023-01-28T16:29:34.316Z,6.00
2023-01-28T16:32:01.348Z,5.91
2023-01-28T16:34:28.252Z,5.79
2023-01-28T16:37:01.807Z,5.71
2023-01-28T16:39:28.588Z,5.69
2023-01-28T16:41:57.023Z,5.62
2023-01-28T16:44:23.664Z,5.56
2023-01-28T16:46:50.266Z,5.51
2023-01-28T16:49:17.116Z,5.46
2023-01-28T16:51:46.613Z,5.41
2023-01-28T16:54:15.096Z,5.40
2023-01-28T16:56:46.489Z,5.35
2023-01-28T16:59:15.041Z,5.25
2023-01-28T17:01:41.927Z,5.24
2023-01-28T17:04:12.817Z,5.17
2023-01-28T17:06:43.505Z,5.03
2023-01-28T17:09:11.048Z,4.93
2023-01-28T17:11:39.756Z,4.83
2023-01-28T17:14:06.610Z,4.82
2023-01-28T17:16:33.183Z,4.75
2023-01-28T17:18:59.798Z,4.75
2023-01-28T17:21:26.335Z,4.84
2023-01-28T17:23:52.988Z,4.83
2023-01-28T17:26:19.828Z,4.79
2023-01-28T17:28:51.193Z,4.70
2023-01-28T17:31:17.852Z,4.66
2023-01-28T17:33:44.700Z,4.63
2023-01-28T17:36:11.397Z,4.52
2023-01-28T17:38:38.114Z,4.41
2023-01-28T17:41:06.151Z,4.35
2023-01-28T17:43:34.321Z,4.35
2023-01-28T17:46:01.583Z,4.30
2023-01-28T17:48:29.595Z,4.23
2023-01-28T17:50:56.551Z,4.23
2023-01-28T17:53:23.147Z,4.27
2023-01-28T17:55:49.671Z,4.26
2023-01-28T17:58:16.398Z,4.33
2023-01-28T18:00:43.039Z,4.39
2023-01-28T18:03:13.453Z,4.37
2023-01-28T18:05:40.179Z,4.37
2023-01-28T18:08:06.896Z,4.25
2023-01-28T18:10:33.830Z,4.11
2023-01-28T18:13:00.411Z,4.03
2023-01-28T18:15:28.524Z,3.88
2023-01-28T18:17:55.496Z,3.75
2023-01-28T18:20:22.047Z,3.75
2023-01-28T18:22:48.924Z,3.71
2023-01-28T18:25:16.926Z,3.76
2023-01-28T18:27:44.350Z,3.74
2023-01-28T18:30:11.371Z,3.68
2023-01-28T18:32:38.183Z,3.63
2023-01-28T18:35:06.627Z,3.59
2023-01-28T18:37:33.293Z,3.58
2023-01-28T18:39:59.837Z,3.58
2023-01-28T18:42:26.387Z,3.53
2023-01-28T18:44:52.964Z,3.51
2023-01-28T18:47:19.624Z,3.45
2023-01-28T18:49:46.218Z,3.38
2023-01-28T18:52:13.010Z,3.34
2023-01-28T18:54:39.588Z,3.42
2023-01-28T18:57:06.380Z,3.41
2023-01-28T18:59:32.902Z,3.38
2023-01-28T19:01:59.577Z,3.39
2023-01-28T19:04:26.220Z,3.47
2023-01-28T19:06:55.363Z,3.49
2023-01-28T19:09:21.881Z,3.50
2023-01-28T19:11:50.559Z,3.59
2023-01-28T19:14:17.739Z,3.58
2023-01-28T19:16:44.430Z,3.52
2023-01-28T19:19:11.350Z,3.50
2023-01-28T19:21:38.094Z,3.45
2023-01-28T19:24:09.945Z,3.53
2023-01-28T19:26:37.200Z,3.53
2023-01-28T19:29:06.061Z,3.54
2023-01-28T19:31:32.720Z,3.51
2023-01-28T19:34:00.327Z,3.47
2023-01-28T19:36:28.353Z,3.45
2023-01-28T19:38:59.539Z,3.44
2023-01-28T19:41:26.889Z,3.57
2023-01-28T19:43:53.441Z,3.72
2023-01-28T19:46:20.201Z,3.85
2023-01-28T19:48:47.260Z,3.97
2023-01-28T19:51:15.231Z,4.12
2023-01-28T19:53:42.627Z,4.27
2023-01-28T19:56:10.524Z,4.27
2023-01-28T19:58:38.043Z,4.30
2023-01-28T20:01:08.981Z,4.34
2023-01-28T20:03:35.699Z,4.30
2023-01-28T20:06:03.530Z,4.36
2023-01-28T20:08:30.498Z,4.39
2023-01-28T20:11:07.617Z,4.35
2023-01-28T20:13:34.986Z,4.31
2023-01-28T20:16:06.063Z,4.24
2023-01-28T20:18:32.889Z,4.13
2023-01-28T20:20:59.725Z,4.10
2023-01-28T20:23:26.260Z,4.07
2023-01-28T20:25:54.865Z,3.90
2023-01-28T20:28:22.275Z,3.86
2023-01-28T20:30:49.456Z,3.85
2023-01-28T20:33:16.282Z,3.77
2023-01-28T20:35:43.441Z,3.65
2023-01-28T20:38:10.383Z,3.65
2023-01-28T20:40:37.999Z,3.61
2023-01-28T20:43:04.507Z,3.61
2023-01-28T20:45:31.645Z,3.59
2023-01-28T20:47:58.131Z,3.56
2023-01-28T20:50:24.743Z,3.52
2023-01-28T20:52:51.737Z,3.51
2023-01-28T20:55:18.277Z,3.46
2023-01-28T20:57:45.055Z,3.43
2023-01-28T21:00:12.383Z,3.36
2023-01-28T21:02:39.987Z,3.33
2023-01-28T21:05:06.846Z,3.32
2023-01-28T21:07:33.383Z,3.35
2023-01-28T21:10:02.234Z,3.31
2023-01-28T21:12:30.276Z,3.32
2023-01-28T21:14:57.012Z,3.31
2023-01-28T21:17:24.211Z,3.35
2023-01-28T21:19:51.004Z,3.35
2023-01-28T21:22:17.555Z,3.37
2023-01-28T21:24:44.837Z,3.34
2023-01-28T21:27:11.379Z,3.30
2023-01-28T21:29:38.017Z,3.25
2023-01-28T21:32:05.192Z,3.14
2023-01-28T21:34:31.803Z,2.94
2023-01-28T21:36:58.304Z,2.89
2023-01-28T21:39:24.894Z,2.83
2023-01-28T21:41:51.421Z,2.80
2023-01-28T21:44:17.934Z,2.68
2023-01-28T21:46:46.347Z,2.64
2023-01-28T21:49:12.984Z,2.63
2023-01-28T21:51:39.849Z,2.59
2023-01-28T21:54:13.894Z,2.61
2023-01-28T21:56:41.891Z,2.64
2023-01-28T21:59:28.073Z,2.67
2023-01-28T22:01:55.373Z,2.68
2023-01-28T22:04:22.006Z,2.63
2023-01-28T22:06:49.359Z,2.61
2023-01-28T22:09:15.956Z,2.51
2023-01-28T22:11:43.577Z,2.43
2023-01-28T22:14:10.602Z,2.37
2023-01-28T22:16:37.818Z,2.32
2023-01-28T22:19:04.470Z,2.34
2023-01-28T22:21:31.340Z,2.33
2023-01-28T22:23:57.896Z,2.33
2023-01-28T22:26:24.480Z,2.36
2023-01-28T22:28:51.276Z,2.40
2023-01-28T22:31:17.976Z,2.33
2023-01-28T22:33:45.820Z,2.36
2023-01-28T22:36:15.093Z,2.38
2023-01-28T22:38:42.552Z,2.24
2023-01-28T22:41:10.909Z,2.25
2023-01-28T22:43:37.522Z,2.27
2023-01-28T22:46:04.773Z,2.22
2023-01-28T22:48:31.353Z,2.28
2023-01-28T22:51:08.647Z,2.31
2023-01-28T22:53:35.197Z,2.31
2023-01-28T22:56:02.824Z,2.30
2023-01-28T22:58:31.581Z,2.35
2023-01-28T23:00:58.234Z,2.35
2023-01-28T23:03:24.829Z,2.28
2023-01-28T23:05:51.795Z,2.22
2023-01-28T23:08:18.759Z,2.12
2023-01-28T23:10:53.446Z,2.17
2023-01-28T23:13:21.005Z,2.17
2023-01-28T23:16:06.726Z,2.15
2023-01-28T23:18:52.550Z,2.11
2023-01-28T23:21:42.373Z,2.01
2023-01-28T23:24:21.960Z,2.09
2023-01-28T23:26:52.699Z,2.03
2023-01-28T23:29:20.356Z,1.97
2023-01-28T23:31:48.376Z,2.03
2023-01-28T23:34:16.349Z,2.08
2023-01-28T23:36:43.493Z,2.02
2023-01-28T23:39:10.042Z,2.09
2023-01-28T23:41:36.669Z,2.15
2023-01-28T23:44:03.801Z,2.12
2023-01-28T23:46:39.386Z,2.14
2023-01-28T23:49:06.863Z,2.10
2023-01-28T23:51:33.415Z,1.96
2023-01-28T23:53:59.936Z,1.76
2023-01-28T23:56:26.506Z,1.71
2023-01-28T23:58:53.340Z,1.62
